Gibsons, Canada
Current Conditions -  °F | °C
As of 1:09 AM on Friday 24 Oct 2014 (Local Time) from CYVR Reporting Station
Overcast Overcast  
Wind Chill: 45°   Ceiling: 7800
Heat Index: 48°   Visibility: 15mi
Dew Point: 46°   Wind: 7mph
Humidity: 93%   Direction: 70°ENE
Pressure: 30.01"   Gusts: NA
Location:  49.4°N, 123.5°W
Report Text: CYVR 240809Z 07006KT 15SM FEW040 FEW057 BKN078 OVC140 09/08 A3001 RMK SC1SC1AC5AC1 SLP163
Loading
Personal Weather Stations






























Interactive Weather Map
Tropical Storm Tracking
New forecast layout! Learn more

10-Day Weather Forecast

Advertisements
Track Severe Weather on mobile